sensor_id;sensor_type;location;lat;lon;timestamp;P1;durP1;ratioP1;P2;durP2;ratioP2
7737;SDS011;29398;45.328;5.558;2023-05-25T00:00:23;9.55;;;6.53;;
7737;SDS011;29398;45.328;5.558;2023-05-25T00:01:25;6.75;;;6.03;;
7737;SDS011;29398;45.328;5.558;2023-05-25T00:02:26;6.40;;;5.80;;
7737;SDS011;29398;45.328;5.558;2023-05-25T00:03:28;6.85;;;6.15;;
7737;SDS011;29398;45.328;5.558;2023-05-25T00:04:30;6.85;;;6.03;;
7737;SDS011;29398;45.328;5.558;2023-05-25T00:05:33;9.30;;;6.40;;
7737;SDS011;29398;45.328;5.558;2023-05-25T00:06:34;8.00;;;6.00;;
7737;SDS011;29398;45.328;5.558;2023-05-25T00:07:40;8.00;;;6.05;;
7737;SDS011;29398;45.328;5.558;2023-05-25T00:08:41;6.72;;;5.57;;
7737;SDS011;29398;45.328;5.558;2023-05-25T00:09:43;7.13;;;6.43;;
7737;SDS011;29398;45.328;5.558;2023-05-25T00:10:45;6.00;;;5.40;;
7737;SDS011;29398;45.328;5.558;2023-05-25T00:11:47;7.18;;;6.10;;
7737;SDS011;29398;45.328;5.558;2023-05-25T00:12:50;6.55;;;5.65;;
7737;SDS011;29398;45.328;5.558;2023-05-25T00:13:52;7.05;;;6.28;;
7737;SDS011;29398;45.328;5.558;2023-05-25T00:14:53;8.15;;;6.32;;
7737;SDS011;29398;45.328;5.558;2023-05-25T00:15:55;8.48;;;5.85;;
7737;SDS011;29398;45.328;5.558;2023-05-25T00:16:56;7.30;;;6.18;;
7737;SDS011;29398;45.328;5.558;2023-05-25T00:18:02;7.40;;;6.20;;
7737;SDS011;29398;45.328;5.558;2023-05-25T00:19:04;9.48;;;6.47;;
7737;SDS011;29398;45.328;5.558;2023-05-25T00:20:09;8.95;;;5.90;;
7737;SDS011;29398;45.328;5.558;2023-05-25T00:21:13;10.18;;;5.93;;
7737;SDS011;29398;45.328;5.558;2023-05-25T00:22:15;7.10;;;6.00;;
7737;SDS011;29398;45.328;5.558;2023-05-25T00:23:16;6.82;;;5.57;;
7737;SDS011;29398;45.328;5.558;2023-05-25T00:24:18;6.93;;;6.30;;
7737;SDS011;29398;45.328;5.558;2023-05-25T00:25:19;6.72;;;6.05;;
7737;SDS011;29398;45.328;5.558;2023-05-25T00:26:22;7.35;;;6.28;;
7737;SDS011;29398;45.328;5.558;2023-05-25T00:27:23;7.55;;;6.40;;
7737;SDS011;29398;45.328;5.558;2023-05-25T00:28:26;6.47;;;5.82;;
7737;SDS011;29398;45.328;5.558;2023-05-25T00:29:27;5.57;;;5.07;;
7737;SDS011;29398;45.328;5.558;2023-05-25T00:30:29;8.07;;;5.45;;
7737;SDS011;29398;45.328;5.558;2023-05-25T00:31:32;8.13;;;6.35;;
7737;SDS011;29398;45.328;5.558;2023-05-25T00:32:35;8.80;;;5.93;;
7737;SDS011;29398;45.328;5.558;2023-05-25T00:33:36;6.03;;;5.43;;
7737;SDS011;29398;45.328;5.558;2023-05-25T00:34:38;6.18;;;5.35;;
7737;SDS011;29398;45.328;5.558;2023-05-25T00:35:40;8.30;;;5.75;;
7737;SDS011;29398;45.328;5.558;2023-05-25T00:36:42;7.95;;;6.03;;
7737;SDS011;29398;45.328;5.558;2023-05-25T00:37:47;8.63;;;6.15;;
7737;SDS011;29398;45.328;5.558;2023-05-25T00:38:51;6.60;;;5.95;;
7737;SDS011;29398;45.328;5.558;2023-05-25T00:39:53;6.90;;;5.57;;
7737;SDS011;29398;45.328;5.558;2023-05-25T00:40:55;6.25;;;5.65;;
7737;SDS011;29398;45.328;5.558;2023-05-25T00:41:56;6.35;;;5.65;;
7737;SDS011;29398;45.328;5.558;2023-05-25T00:43:00;6.75;;;5.65;;
7737;SDS011;29398;45.328;5.558;2023-05-25T00:44:02;6.80;;;5.72;;
7737;SDS011;29398;45.328;5.558;2023-05-25T00:45:05;6.05;;;5.45;;
7737;SDS011;29398;45.328;5.558;2023-05-25T00:46:08;6.18;;;5.57;;
7737;SDS011;29398;45.328;5.558;2023-05-25T00:47:10;6.57;;;5.72;;
7737;SDS011;29398;45.328;5.558;2023-05-25T00:48:12;8.63;;;5.68;;
7737;SDS011;29398;45.328;5.558;2023-05-25T00:49:16;7.68;;;5.70;;
7737;SDS011;29398;45.328;5.558;2023-05-25T00:50:18;6.68;;;6.07;;
7737;SDS011;29398;45.328;5.558;2023-05-25T00:51:27;7.70;;;6.10;;
7737;SDS011;29398;45.328;5.558;2023-05-25T00:52:32;6.50;;;5.78;;
7737;SDS011;29398;45.328;5.558;2023-05-25T00:53:34;6.90;;;5.88;;
7737;SDS011;29398;45.328;5.558;2023-05-25T00:54:36;7.60;;;6.22;;
7737;SDS011;29398;45.328;5.558;2023-05-25T00:55:40;7.68;;;5.75;;
7737;SDS011;29398;45.328;5.558;2023-05-25T00:56:46;8.90;;;6.78;;
7737;SDS011;29398;45.328;5.558;2023-05-25T00:57:51;7.75;;;6.07;;
7737;SDS011;29398;45.328;5.558;2023-05-25T00:58:54;8.23;;;6.32;;
7737;SDS011;29398;45.328;5.558;2023-05-25T01:00:00;8.50;;;7.10;;
7737;SDS011;29398;45.328;5.558;2023-05-25T01:01:04;7.85;;;5.75;;
7737;SDS011;29398;45.328;5.558;2023-05-25T01:02:11;6.35;;;5.75;;
7737;SDS011;29398;45.328;5.558;2023-05-25T01:03:18;9.05;;;6.10;;
7737;SDS011;29398;45.328;5.558;2023-05-25T01:05:28;8.05;;;6.35;;
7737;SDS011;29398;45.328;5.558;2023-05-25T01:06:34;6.53;;;5.93;;
7737;SDS011;29398;45.328;5.558;2023-05-25T01:07:37;6.88;;;6.05;;
7737;SDS011;29398;45.328;5.558;2023-05-25T01:08:43;6.80;;;6.10;;
7737;SDS011;29398;45.328;5.558;2023-05-25T01:09:49;8.77;;;6.20;;
7737;SDS011;29398;45.328;5.558;2023-05-25T01:10:58;8.90;;;6.07;;
7737;SDS011;29398;45.328;5.558;2023-05-25T01:12:02;6.68;;;5.97;;
7737;SDS011;29398;45.328;5.558;2023-05-25T01:13:06;7.45;;;5.85;;
7737;SDS011;29398;45.328;5.558;2023-05-25T01:14:08;6.75;;;6.15;;
7737;SDS011;29398;45.328;5.558;2023-05-25T01:15:12;6.50;;;5.90;;
7737;SDS011;29398;45.328;5.558;2023-05-25T01:16:14;6.75;;;5.95;;
7737;SDS011;29398;45.328;5.558;2023-05-25T01:17:17;9.85;;;6.30;;
7737;SDS011;29398;45.328;5.558;2023-05-25T01:18:19;7.63;;;6.05;;
7737;SDS011;29398;45.328;5.558;2023-05-25T01:19:21;7.90;;;5.70;;
7737;SDS011;29398;45.328;5.558;2023-05-25T01:20:22;8.35;;;6.10;;
7737;SDS011;29398;45.328;5.558;2023-05-25T01:21:31;8.70;;;6.18;;
7737;SDS011;29398;45.328;5.558;2023-05-25T01:22:38;6.68;;;5.78;;
7737;SDS011;29398;45.328;5.558;2023-05-25T01:23:46;7.40;;;6.18;;
7737;SDS011;29398;45.328;5.558;2023-05-25T01:24:51;7.30;;;6.60;;
7737;SDS011;29398;45.328;5.558;2023-05-25T01:25:57;8.10;;;6.10;;
7737;SDS011;29398;45.328;5.558;2023-05-25T01:27:02;10.57;;;7.15;;
7737;SDS011;29398;45.328;5.558;2023-05-25T01:28:10;7.75;;;6.07;;
7737;SDS011;29398;45.328;5.558;2023-05-25T01:29:15;11.32;;;6.50;;
7737;SDS011;29398;45.328;5.558;2023-05-25T01:30:18;6.85;;;6.15;;
7737;SDS011;29398;45.328;5.558;2023-05-25T01:31:23;6.32;;;5.72;;
7737;SDS011;29398;45.328;5.558;2023-05-25T01:32:26;9.63;;;6.43;;
7737;SDS011;29398;45.328;5.558;2023-05-25T01:33:28;7.80;;;6.43;;
7737;SDS011;29398;45.328;5.558;2023-05-25T01:34:32;10.23;;;6.20;;
7737;SDS011;29398;45.328;5.558;2023-05-25T01:35:34;8.98;;;6.03;;
7737;SDS011;29398;45.328;5.558;2023-05-25T01:36:39;8.05;;;5.97;;
7737;SDS011;29398;45.328;5.558;2023-05-25T01:37:43;9.55;;;6.30;;
7737;SDS011;29398;45.328;5.558;2023-05-25T01:38:46;10.35;;;6.07;;
7737;SDS011;29398;45.328;5.558;2023-05-25T01:39:47;8.18;;;6.03;;
7737;SDS011;29398;45.328;5.558;2023-05-25T01:40:49;10.32;;;6.35;;
7737;SDS011;29398;45.328;5.558;2023-05-25T01:41:51;11.68;;;6.20;;
7737;SDS011;29398;45.328;5.558;2023-05-25T01:42:53;7.93;;;5.88;;
7737;SDS011;29398;45.328;5.558;2023-05-25T01:43:54;9.40;;;5.95;;
7737;SDS011;29398;45.328;5.558;2023-05-25T01:44:56;7.85;;;6.22;;
7737;SDS011;29398;45.328;5.558;2023-05-25T01:46:01;8.25;;;5.93;;
7737;SDS011;29398;45.328;5.558;2023-05-25T01:47:09;8.45;;;6.50;;
7737;SDS011;29398;45.328;5.558;2023-05-25T01:48:20;8.85;;;6.50;;
7737;SDS011;29398;45.328;5.558;2023-05-25T01:49:27;7.03;;;6.13;;
7737;SDS011;29398;45.328;5.558;2023-05-25T01:50:34;8.63;;;6.10;;
7737;SDS011;29398;45.328;5.558;2023-05-25T01:51:44;7.65;;;6.70;;
7737;SDS011;29398;45.328;5.558;2023-05-25T01:52:55;8.55;;;6.20;;
7737;SDS011;29398;45.328;5.558;2023-05-25T01:54:02;9.40;;;6.72;;
7737;SDS011;29398;45.328;5.558;2023-05-25T01:55:10;10.13;;;6.28;;
7737;SDS011;29398;45.328;5.558;2023-05-25T01:56:15;7.30;;;5.80;;
7737;SDS011;29398;45.328;5.558;2023-05-25T01:57:17;6.22;;;5.63;;
7737;SDS011;29398;45.328;5.558;2023-05-25T01:58:21;7.95;;;5.95;;
7737;SDS011;29398;45.328;5.558;2023-05-25T01:59:24;8.18;;;6.03;;
7737;SDS011;29398;45.328;5.558;2023-05-25T02:00:28;7.68;;;6.88;;
7737;SDS011;29398;45.328;5.558;2023-05-25T02:01:31;8.55;;;6.47;;
7737;SDS011;29398;45.328;5.558;2023-05-25T02:02:35;9.20;;;6.40;;
7737;SDS011;29398;45.328;5.558;2023-05-25T02:03:38;9.18;;;6.45;;
7737;SDS011;29398;45.328;5.558;2023-05-25T02:04:41;7.15;;;6.40;;
7737;SDS011;29398;45.328;5.558;2023-05-25T02:05:43;7.15;;;6.25;;
7737;SDS011;29398;45.328;5.558;2023-05-25T02:06:49;6.90;;;6.15;;
7737;SDS011;29398;45.328;5.558;2023-05-25T02:07:52;7.97;;;6.18;;
7737;SDS011;29398;45.328;5.558;2023-05-25T02:08:54;7.50;;;6.60;;
7737;SDS011;29398;45.328;5.558;2023-05-25T02:09:55;9.65;;;6.35;;
7737;SDS011;29398;45.328;5.558;2023-05-25T02:10:57;9.90;;;6.47;;
7737;SDS011;29398;45.328;5.558;2023-05-25T02:11:58;8.48;;;6.50;;
7737;SDS011;29398;45.328;5.558;2023-05-25T02:13:01;9.07;;;6.65;;
7737;SDS011;29398;45.328;5.558;2023-05-25T02:14:02;8.82;;;6.68;;
7737;SDS011;29398;45.328;5.558;2023-05-25T02:15:05;8.57;;;6.95;;
7737;SDS011;29398;45.328;5.558;2023-05-25T02:16:06;8.60;;;6.95;;
7737;SDS011;29398;45.328;5.558;2023-05-25T02:17:09;7.93;;;7.05;;
7737;SDS011;29398;45.328;5.558;2023-05-25T02:18:11;7.63;;;6.68;;
7737;SDS011;29398;45.328;5.558;2023-05-25T02:19:16;8.93;;;7.05;;
7737;SDS011;29398;45.328;5.558;2023-05-25T02:20:18;7.75;;;6.35;;
7737;SDS011;29398;45.328;5.558;2023-05-25T02:21:20;7.97;;;7.15;;
7737;SDS011;29398;45.328;5.558;2023-05-25T02:22:23;9.50;;;6.75;;
7737;SDS011;29398;45.328;5.558;2023-05-25T02:23:26;13.05;;;7.38;;
7737;SDS011;29398;45.328;5.558;2023-05-25T02:24:27;10.15;;;7.32;;
7737;SDS011;29398;45.328;5.558;2023-05-25T02:25:29;10.57;;;7.05;;
7737;SDS011;29398;45.328;5.558;2023-05-25T02:26:30;10.15;;;7.50;;
7737;SDS011;29398;45.328;5.558;2023-05-25T02:27:32;10.40;;;7.30;;
7737;SDS011;29398;45.328;5.558;2023-05-25T02:28:34;8.60;;;7.57;;
7737;SDS011;29398;45.328;5.558;2023-05-25T02:29:36;10.20;;;7.50;;
7737;SDS011;29398;45.328;5.558;2023-05-25T02:30:38;10.57;;;7.30;;
7737;SDS011;29398;45.328;5.558;2023-05-25T02:31:40;10.00;;;6.78;;
7737;SDS011;29398;45.328;5.558;2023-05-25T02:32:41;11.02;;;7.45;;
7737;SDS011;29398;45.328;5.558;2023-05-25T02:33:43;13.18;;;7.05;;
7737;SDS011;29398;45.328;5.558;2023-05-25T02:34:44;10.98;;;7.32;;
7737;SDS011;29398;45.328;5.558;2023-05-25T02:35:47;9.18;;;6.60;;
7737;SDS011;29398;45.328;5.558;2023-05-25T02:36:49;10.27;;;6.90;;
7737;SDS011;29398;45.328;5.558;2023-05-25T02:37:52;9.70;;;6.20;;
7737;SDS011;29398;45.328;5.558;2023-05-25T02:38:53;10.07;;;5.90;;
7737;SDS011;29398;45.328;5.558;2023-05-25T02:39:54;8.20;;;5.55;;
7737;SDS011;29398;45.328;5.558;2023-05-25T02:40:56;7.18;;;5.20;;
7737;SDS011;29398;45.328;5.558;2023-05-25T02:41:58;6.38;;;4.30;;
7737;SDS011;29398;45.328;5.558;2023-05-25T02:43:00;6.03;;;4.18;;
7737;SDS011;29398;45.328;5.558;2023-05-25T02:44:02;9.32;;;4.68;;
7737;SDS011;29398;45.328;5.558;2023-05-25T02:45:06;5.85;;;4.18;;
7737;SDS011;29398;45.328;5.558;2023-05-25T02:46:10;4.95;;;4.00;;
7737;SDS011;29398;45.328;5.558;2023-05-25T02:47:13;6.90;;;3.90;;
7737;SDS011;29398;45.328;5.558;2023-05-25T02:48:14;8.20;;;3.80;;
7737;SDS011;29398;45.328;5.558;2023-05-25T02:49:17;6.50;;;3.97;;
7737;SDS011;29398;45.328;5.558;2023-05-25T02:50:19;6.00;;;3.70;;
7737;SDS011;29398;45.328;5.558;2023-05-25T02:51:28;8.32;;;3.58;;
7737;SDS011;29398;45.328;5.558;2023-05-25T02:52:31;6.35;;;3.75;;
7737;SDS011;29398;45.328;5.558;2023-05-25T02:53:35;8.18;;;3.35;;
7737;SDS011;29398;45.328;5.558;2023-05-25T02:54:36;5.30;;;3.50;;
7737;SDS011;29398;45.328;5.558;2023-05-25T02:55:41;6.43;;;3.22;;
7737;SDS011;29398;45.328;5.558;2023-05-25T02:56:46;4.72;;;3.20;;
7737;SDS011;29398;45.328;5.558;2023-05-25T02:57:50;6.13;;;3.33;;
7737;SDS011;29398;45.328;5.558;2023-05-25T02:59:07;7.28;;;3.22;;
7737;SDS011;29398;45.328;5.558;2023-05-25T03:00:10;5.28;;;3.20;;
7737;SDS011;29398;45.328;5.558;2023-05-25T03:01:12;7.32;;;3.22;;
7737;SDS011;29398;45.328;5.558;2023-05-25T03:02:18;5.53;;;2.92;;
7737;SDS011;29398;45.328;5.558;2023-05-25T03:03:20;5.30;;;3.13;;
7737;SDS011;29398;45.328;5.558;2023-05-25T03:04:22;3.97;;;3.05;;
7737;SDS011;29398;45.328;5.558;2023-05-25T03:05:25;4.10;;;2.95;;
7737;SDS011;29398;45.328;5.558;2023-05-25T03:06:27;5.95;;;2.90;;
7737;SDS011;29398;45.328;5.558;2023-05-25T03:07:32;6.20;;;2.65;;
7737;SDS011;29398;45.328;5.558;2023-05-25T03:08:33;4.30;;;3.00;;
7737;SDS011;29398;45.328;5.558;2023-05-25T03:09:36;6.07;;;3.10;;
7737;SDS011;29398;45.328;5.558;2023-05-25T03:10:38;6.30;;;2.97;;
7737;SDS011;29398;45.328;5.558;2023-05-25T03:11:41;6.05;;;2.80;;
7737;SDS011;29398;45.328;5.558;2023-05-25T03:12:48;6.60;;;3.10;;
7737;SDS011;29398;45.328;5.558;2023-05-25T03:13:51;6.78;;;3.10;;
7737;SDS011;29398;45.328;5.558;2023-05-25T03:14:53;5.28;;;2.55;;
7737;SDS011;29398;45.328;5.558;2023-05-25T03:15:56;4.47;;;2.90;;
7737;SDS011;29398;45.328;5.558;2023-05-25T03:16:57;4.45;;;2.90;;
7737;SDS011;29398;45.328;5.558;2023-05-25T03:18:00;5.13;;;3.20;;
7737;SDS011;29398;45.328;5.558;2023-05-25T03:19:05;5.95;;;3.17;;
7737;SDS011;29398;45.328;5.558;2023-05-25T03:20:11;5.18;;;2.45;;
7737;SDS011;29398;45.328;5.558;2023-05-25T03:21:16;5.78;;;2.95;;
7737;SDS011;29398;45.328;5.558;2023-05-25T03:22:19;7.07;;;2.70;;
7737;SDS011;29398;45.328;5.558;2023-05-25T03:23:20;5.00;;;2.80;;
7737;SDS011;29398;45.328;5.558;2023-05-25T03:24:25;6.72;;;2.88;;
7737;SDS011;29398;45.328;5.558;2023-05-25T03:25:32;4.10;;;2.50;;
7737;SDS011;29398;45.328;5.558;2023-05-25T03:26:34;5.22;;;2.40;;
7737;SDS011;29398;45.328;5.558;2023-05-25T03:27:38;4.85;;;2.70;;
7737;SDS011;29398;45.328;5.558;2023-05-25T03:28:41;4.13;;;2.70;;
7737;SDS011;29398;45.328;5.558;2023-05-25T03:29:47;4.03;;;2.50;;
7737;SDS011;29398;45.328;5.558;2023-05-25T03:30:50;4.43;;;2.80;;
7737;SDS011;29398;45.328;5.558;2023-05-25T03:31:51;3.95;;;2.30;;
7737;SDS011;29398;45.328;5.558;2023-05-25T03:32:56;4.38;;;2.25;;
7737;SDS011;29398;45.328;5.558;2023-05-25T03:34:01;2.70;;;2.20;;
7737;SDS011;29398;45.328;5.558;2023-05-25T03:35:04;3.83;;;2.50;;
7737;SDS011;29398;45.328;5.558;2023-05-25T03:36:06;5.28;;;2.55;;
7737;SDS011;29398;45.328;5.558;2023-05-25T03:37:09;3.65;;;2.08;;
7737;SDS011;29398;45.328;5.558;2023-05-25T03:38:10;6.00;;;2.65;;
7737;SDS011;29398;45.328;5.558;2023-05-25T03:39:13;6.40;;;2.60;;
7737;SDS011;29398;45.328;5.558;2023-05-25T03:40:14;8.00;;;2.70;;
7737;SDS011;29398;45.328;5.558;2023-05-25T03:41:17;4.40;;;2.38;;
7737;SDS011;29398;45.328;5.558;2023-05-25T03:42:18;6.85;;;2.50;;
7737;SDS011;29398;45.328;5.558;2023-05-25T03:43:21;6.60;;;2.88;;
7737;SDS011;29398;45.328;5.558;2023-05-25T03:44:22;3.50;;;2.65;;
7737;SDS011;29398;45.328;5.558;2023-05-25T03:45:24;5.10;;;2.63;;
7737;SDS011;29398;45.328;5.558;2023-05-25T03:46:25;3.13;;;2.17;;
7737;SDS011;29398;45.328;5.558;2023-05-25T03:47:30;4.82;;;2.50;;
7737;SDS011;29398;45.328;5.558;2023-05-25T03:48:32;3.22;;;2.20;;
7737;SDS011;29398;45.328;5.558;2023-05-25T03:49:34;2.80;;;1.92;;
7737;SDS011;29398;45.328;5.558;2023-05-25T03:50:35;5.18;;;2.80;;
7737;SDS011;29398;45.328;5.558;2023-05-25T03:51:39;5.50;;;2.20;;
7737;SDS011;29398;45.328;5.558;2023-05-25T03:52:40;4.55;;;2.65;;
7737;SDS011;29398;45.328;5.558;2023-05-25T03:53:43;5.25;;;2.63;;
7737;SDS011;29398;45.328;5.558;2023-05-25T03:54:44;3.78;;;2.50;;
7737;SDS011;29398;45.328;5.558;2023-05-25T03:55:46;3.83;;;2.20;;
7737;SDS011;29398;45.328;5.558;2023-05-25T03:56:52;8.05;;;2.75;;
7737;SDS011;29398;45.328;5.558;2023-05-25T03:57:57;5.32;;;2.22;;
7737;SDS011;29398;45.328;5.558;2023-05-25T03:59:00;5.78;;;2.13;;
7737;SDS011;29398;45.328;5.558;2023-05-25T04:00:02;3.60;;;2.25;;
7737;SDS011;29398;45.328;5.558;2023-05-25T04:01:13;4.75;;;2.10;;
7737;SDS011;29398;45.328;5.558;2023-05-25T04:02:15;5.53;;;2.47;;
7737;SDS011;29398;45.328;5.558;2023-05-25T04:03:17;4.50;;;2.22;;
7737;SDS011;29398;45.328;5.558;2023-05-25T04:04:19;2.88;;;2.20;;
7737;SDS011;29398;45.328;5.558;2023-05-25T04:05:21;3.33;;;2.40;;
7737;SDS011;29398;45.328;5.558;2023-05-25T04:06:23;3.72;;;2.85;;
7737;SDS011;29398;45.328;5.558;2023-05-25T04:07:24;5.63;;;2.75;;
7737;SDS011;29398;45.328;5.558;2023-05-25T04:08:29;3.47;;;2.25;;
7737;SDS011;29398;45.328;5.558;2023-05-25T04:09:31;4.30;;;2.47;;
7737;SDS011;29398;45.328;5.558;2023-05-25T04:10:33;5.95;;;3.15;;
7737;SDS011;29398;45.328;5.558;2023-05-25T04:11:34;3.95;;;2.13;;
7737;SDS011;29398;45.328;5.558;2023-05-25T04:12:38;4.75;;;2.40;;
7737;SDS011;29398;45.328;5.558;2023-05-25T04:13:39;6.40;;;2.38;;
7737;SDS011;29398;45.328;5.558;2023-05-25T04:14:43;5.00;;;2.53;;
7737;SDS011;29398;45.328;5.558;2023-05-25T04:15:45;7.40;;;2.90;;
7737;SDS011;29398;45.328;5.558;2023-05-25T04:16:51;6.30;;;2.60;;
7737;SDS011;29398;45.328;5.558;2023-05-25T04:17:53;7.07;;;2.80;;
7737;SDS011;29398;45.328;5.558;2023-05-25T04:18:55;8.25;;;2.60;;
7737;SDS011;29398;45.328;5.558;2023-05-25T04:19:56;5.18;;;2.55;;
7737;SDS011;29398;45.328;5.558;2023-05-25T04:20:59;4.75;;;2.70;;
7737;SDS011;29398;45.328;5.558;2023-05-25T04:22:01;5.20;;;2.80;;
7737;SDS011;29398;45.328;5.558;2023-05-25T04:23:03;5.05;;;2.65;;
7737;SDS011;29398;45.328;5.558;2023-05-25T04:24:06;7.38;;;2.80;;
7737;SDS011;29398;45.328;5.558;2023-05-25T04:25:09;7.13;;;2.90;;
7737;SDS011;29398;45.328;5.558;2023-05-25T04:26:11;6.68;;;2.55;;
7737;SDS011;29398;45.328;5.558;2023-05-25T04:27:15;5.03;;;2.80;;
7737;SDS011;29398;45.328;5.558;2023-05-25T04:28:18;4.22;;;2.70;;
7737;SDS011;29398;45.328;5.558;2023-05-25T04:29:34;3.70;;;2.63;;
7737;SDS011;29398;45.328;5.558;2023-05-25T04:30:54;4.95;;;2.83;;
7737;SDS011;29398;45.328;5.558;2023-05-25T04:32:19;6.07;;;2.67;;
7737;SDS011;29398;45.328;5.558;2023-05-25T04:33:45;5.95;;;3.20;;
7737;SDS011;29398;45.328;5.558;2023-05-25T04:35:14;7.32;;;3.13;;
7737;SDS011;29398;45.328;5.558;2023-05-25T04:36:23;9.45;;;3.88;;
7737;SDS011;29398;45.328;5.558;2023-05-25T04:37:24;6.65;;;3.10;;
7737;SDS011;29398;45.328;5.558;2023-05-25T04:38:28;4.72;;;2.83;;
7737;SDS011;29398;45.328;5.558;2023-05-25T04:39:31;5.47;;;2.90;;
7737;SDS011;29398;45.328;5.558;2023-05-25T04:40:34;5.80;;;2.92;;
7737;SDS011;29398;45.328;5.558;2023-05-25T04:41:36;6.88;;;2.92;;
7737;SDS011;29398;45.328;5.558;2023-05-25T04:42:42;5.15;;;2.90;;
7737;SDS011;29398;45.328;5.558;2023-05-25T04:43:45;5.10;;;2.80;;
7737;SDS011;29398;45.328;5.558;2023-05-25T04:44:47;4.00;;;2.53;;
7737;SDS011;29398;45.328;5.558;2023-05-25T04:45:49;4.63;;;2.70;;
7737;SDS011;29398;45.328;5.558;2023-05-25T04:46:50;6.45;;;2.83;;
7737;SDS011;29398;45.328;5.558;2023-05-25T04:48:02;7.38;;;2.50;;
7737;SDS011;29398;45.328;5.558;2023-05-25T04:49:04;5.90;;;2.75;;
7737;SDS011;29398;45.328;5.558;2023-05-25T04:50:08;6.55;;;3.10;;
7737;SDS011;29398;45.328;5.558;2023-05-25T04:51:11;9.18;;;2.88;;
7737;SDS011;29398;45.328;5.558;2023-05-25T04:52:13;4.85;;;2.70;;
7737;SDS011;29398;45.328;5.558;2023-05-25T04:53:16;5.07;;;2.92;;
7737;SDS011;29398;45.328;5.558;2023-05-25T04:54:17;4.28;;;2.88;;
7737;SDS011;29398;45.328;5.558;2023-05-25T04:55:19;6.18;;;3.05;;
7737;SDS011;29398;45.328;5.558;2023-05-25T04:56:21;6.03;;;3.30;;
7737;SDS011;29398;45.328;5.558;2023-05-25T04:57:25;6.60;;;3.20;;
7737;SDS011;29398;45.328;5.558;2023-05-25T04:58:27;7.05;;;3.53;;
7737;SDS011;29398;45.328;5.558;2023-05-25T04:59:31;4.88;;;2.42;;
7737;SDS011;29398;45.328;5.558;2023-05-25T05:00:33;5.68;;;2.85;;
7737;SDS011;29398;45.328;5.558;2023-05-25T05:01:36;3.10;;;2.80;;
7737;SDS011;29398;45.328;5.558;2023-05-25T05:02:40;8.02;;;3.00;;
7737;SDS011;29398;45.328;5.558;2023-05-25T05:03:43;6.30;;;3.13;;
7737;SDS011;29398;45.328;5.558;2023-05-25T05:04:44;8.40;;;3.10;;
7737;SDS011;29398;45.328;5.558;2023-05-25T05:05:46;4.68;;;2.97;;
7737;SDS011;29398;45.328;5.558;2023-05-25T05:06:53;5.90;;;3.05;;
7737;SDS011;29398;45.328;5.558;2023-05-25T05:07:57;5.80;;;2.78;;
7737;SDS011;29398;45.328;5.558;2023-05-25T05:09:00;11.32;;;3.50;;
7737;SDS011;29398;45.328;5.558;2023-05-25T05:10:02;5.68;;;3.70;;
7737;SDS011;29398;45.328;5.558;2023-05-25T05:11:06;6.13;;;3.47;;
7737;SDS011;29398;45.328;5.558;2023-05-25T05:12:07;8.90;;;3.80;;
7737;SDS011;29398;45.328;5.558;2023-05-25T05:13:13;5.00;;;2.80;;
7737;SDS011;29398;45.328;5.558;2023-05-25T05:14:15;5.28;;;2.80;;
7737;SDS011;29398;45.328;5.558;2023-05-25T05:15:20;6.80;;;3.20;;
7737;SDS011;29398;45.328;5.558;2023-05-25T05:16:22;5.20;;;3.10;;
7737;SDS011;29398;45.328;5.558;2023-05-25T05:17:25;7.55;;;3.17;;
7737;SDS011;29398;45.328;5.558;2023-05-25T05:18:28;5.80;;;3.15;;
7737;SDS011;29398;45.328;5.558;2023-05-25T05:19:30;7.93;;;2.85;;
7737;SDS011;29398;45.328;5.558;2023-05-25T05:20:33;7.57;;;3.28;;
7737;SDS011;29398;45.328;5.558;2023-05-25T05:21:34;10.35;;;3.55;;
7737;SDS011;29398;45.328;5.558;2023-05-25T05:22:39;6.07;;;3.47;;
7737;SDS011;29398;45.328;5.558;2023-05-25T05:23:41;5.53;;;3.20;;
7737;SDS011;29398;45.328;5.558;2023-05-25T05:24:44;6.72;;;3.58;;
7737;SDS011;29398;45.328;5.558;2023-05-25T05:25:48;10.07;;;3.65;;
7737;SDS011;29398;45.328;5.558;2023-05-25T05:26:51;6.47;;;3.30;;
7737;SDS011;29398;45.328;5.558;2023-05-25T05:27:52;8.68;;;3.40;;
7737;SDS011;29398;45.328;5.558;2023-05-25T05:29:00;9.15;;;3.42;;
7737;SDS011;29398;45.328;5.558;2023-05-25T05:30:04;8.05;;;4.35;;
7737;SDS011;29398;45.328;5.558;2023-05-25T05:31:08;6.78;;;3.38;;
7737;SDS011;29398;45.328;5.558;2023-05-25T05:32:11;6.97;;;3.70;;
7737;SDS011;29398;45.328;5.558;2023-05-25T05:33:12;6.25;;;3.72;;
7737;SDS011;29398;45.328;5.558;2023-05-25T05:34:19;6.65;;;3.25;;
7737;SDS011;29398;45.328;5.558;2023-05-25T05:35:20;8.77;;;3.85;;
7737;SDS011;29398;45.328;5.558;2023-05-25T05:36:24;7.35;;;3.22;;
7737;SDS011;29398;45.328;5.558;2023-05-25T05:37:30;8.10;;;3.42;;
7737;SDS011;29398;45.328;5.558;2023-05-25T05:38:32;7.97;;;3.50;;
7737;SDS011;29398;45.328;5.558;2023-05-25T05:39:33;5.43;;;3.25;;
7737;SDS011;29398;45.328;5.558;2023-05-25T05:40:35;7.35;;;3.40;;
7737;SDS011;29398;45.328;5.558;2023-05-25T05:41:36;13.55;;;3.95;;
7737;SDS011;29398;45.328;5.558;2023-05-25T05:42:42;8.05;;;3.53;;
7737;SDS011;29398;45.328;5.558;2023-05-25T05:43:44;9.90;;;3.38;;
7737;SDS011;29398;45.328;5.558;2023-05-25T05:44:46;7.22;;;3.35;;
7737;SDS011;29398;45.328;5.558;2023-05-25T05:45:47;6.60;;;3.55;;
7737;SDS011;29398;45.328;5.558;2023-05-25T05:46:51;6.05;;;2.97;;
7737;SDS011;29398;45.328;5.558;2023-05-25T05:47:52;6.85;;;3.42;;
7737;SDS011;29398;45.328;5.558;2023-05-25T05:48:54;8.25;;;3.63;;
7737;SDS011;29398;45.328;5.558;2023-05-25T05:49:56;6.63;;;3.97;;
7737;SDS011;29398;45.328;5.558;2023-05-25T05:50:58;5.85;;;2.95;;
7737;SDS011;29398;45.328;5.558;2023-05-25T05:52:01;5.65;;;3.45;;
7737;SDS011;29398;45.328;5.558;2023-05-25T05:53:03;10.27;;;3.58;;
7737;SDS011;29398;45.328;5.558;2023-05-25T05:54:05;9.38;;;3.70;;
7737;SDS011;29398;45.328;5.558;2023-05-25T05:55:08;7.95;;;4.43;;
7737;SDS011;29398;45.328;5.558;2023-05-25T05:56:15;8.05;;;3.65;;
7737;SDS011;29398;45.328;5.558;2023-05-25T05:57:19;8.43;;;3.65;;
7737;SDS011;29398;45.328;5.558;2023-05-25T05:58:21;4.20;;;2.95;;
7737;SDS011;29398;45.328;5.558;2023-05-25T05:59:23;3.83;;;3.47;;
7737;SDS011;29398;45.328;5.558;2023-05-25T06:00:24;4.72;;;3.80;;
7737;SDS011;29398;45.328;5.558;2023-05-25T06:01:26;7.05;;;3.63;;
7737;SDS011;29398;45.328;5.558;2023-05-25T06:02:29;6.47;;;3.60;;
7737;SDS011;29398;45.328;5.558;2023-05-25T06:03:31;7.55;;;3.60;;
7737;SDS011;29398;45.328;5.558;2023-05-25T06:04:33;6.95;;;3.88;;
7737;SDS011;29398;45.328;5.558;2023-05-25T06:05:38;7.45;;;4.00;;
7737;SDS011;29398;45.328;5.558;2023-05-25T06:06:39;8.40;;;4.05;;
7737;SDS011;29398;45.328;5.558;2023-05-25T06:07:42;7.25;;;3.40;;
7737;SDS011;29398;45.328;5.558;2023-05-25T06:08:43;6.05;;;3.58;;
7737;SDS011;29398;45.328;5.558;2023-05-25T06:09:46;8.00;;;3.60;;
7737;SDS011;29398;45.328;5.558;2023-05-25T06:10:48;8.68;;;3.40;;
7737;SDS011;29398;45.328;5.558;2023-05-25T06:11:50;8.45;;;3.85;;
7737;SDS011;29398;45.328;5.558;2023-05-25T06:12:52;7.53;;;3.70;;
7737;SDS011;29398;45.328;5.558;2023-05-25T06:13:55;10.25;;;3.47;;
7737;SDS011;29398;45.328;5.558;2023-05-25T06:14:56;7.22;;;3.63;;
7737;SDS011;29398;45.328;5.558;2023-05-25T06:15:58;9.70;;;3.63;;
7737;SDS011;29398;45.328;5.558;2023-05-25T06:16:59;7.28;;;4.18;;
7737;SDS011;29398;45.328;5.558;2023-05-25T06:18:03;6.25;;;3.50;;
7737;SDS011;29398;45.328;5.558;2023-05-25T06:19:06;5.38;;;3.47;;
7737;SDS011;29398;45.328;5.558;2023-05-25T06:20:07;4.93;;;2.67;;
7737;SDS011;29398;45.328;5.558;2023-05-25T06:21:11;5.60;;;3.50;;
7737;SDS011;29398;45.328;5.558;2023-05-25T06:22:12;6.63;;;3.70;;
7737;SDS011;29398;45.328;5.558;2023-05-25T06:23:14;6.07;;;3.75;;
7737;SDS011;29398;45.328;5.558;2023-05-25T06:24:17;7.53;;;3.17;;
7737;SDS011;29398;45.328;5.558;2023-05-25T06:25:19;8.23;;;3.30;;
7737;SDS011;29398;45.328;5.558;2023-05-25T06:26:20;7.15;;;3.45;;
7737;SDS011;29398;45.328;5.558;2023-05-25T06:27:23;8.52;;;3.70;;
7737;SDS011;29398;45.328;5.558;2023-05-25T06:28:24;5.90;;;3.22;;